Terminal Aerodrome Forecast
Issued by NWS Des Moines, IA

Home | Current Version | Previous Version | Text Only | Print | Product List | Glossary On
Versions: 1 2 3 4 5 6 7 8 9 10 11 12 13 14 15 16 17 18
000
FTUS43 KDMX 272011 AAA
TAFALO
TAF AMD
KALO 272011Z 2720/2818 17010KT P6SM FEW250
     FM280800 16010G19KT P6SM BKN120 WS016/19045KT
     FM281000 17010G19KT P6SM VCSH OVC090 WS016/20045KT
     FM281300 18017G27KT P6SM VCSH BKN050
     FM281600 18018G27KT P6SM VCSH BKN025=

USA.gov is the U.S. government's official web portal to all federal, state and local government web resources and services.